sensor_id;sensor_type;location;lat;lon;timestamp;pressure;altitude;pressure_sealevel;temperature;humidity
46506;BME280;32220;49.808;9.968;2024-01-30T09:03:55;100334.75;;;1.68;100.00
46506;BME280;32220;49.808;9.968;2024-01-30T09:06:23;100339.63;;;2.44;100.00
46506;BME280;32220;49.808;9.968;2024-01-30T09:08:52;100332.28;;;2.95;100.00
46506;BME280;32220;49.808;9.968;2024-01-30T09:11:20;100360.44;;;3.65;100.00
46506;BME280;32220;49.808;9.968;2024-01-30T09:13:47;100364.34;;;4.07;96.98
46506;BME280;32220;49.808;9.968;2024-01-30T09:16:15;100362.19;;;4.35;94.19
46506;BME280;32220;49.808;9.968;2024-01-30T09:18:43;100374.81;;;4.72;91.24
46506;BME280;32220;49.808;9.968;2024-01-30T09:21:12;100345.84;;;4.79;89.75
46506;BME280;32220;49.808;9.968;2024-01-30T09:23:39;100368.53;;;5.35;87.27
46506;BME280;32220;49.808;9.968;2024-01-30T09:26:06;100389.34;;;5.98;84.76
46506;BME280;32220;49.808;9.968;2024-01-30T09:28:34;100381.06;;;6.18;82.81
46506;BME280;32220;49.808;9.968;2024-01-30T09:31:02;100392.91;;;6.39;81.81
46506;BME280;32220;49.808;9.968;2024-01-30T09:33:29;100356.38;;;6.24;80.48
46506;BME280;32220;49.808;9.968;2024-01-30T09:35:57;100397.75;;;6.57;79.57
46506;BME280;32220;49.808;9.968;2024-01-30T09:38:26;100398.53;;;6.62;78.91
46506;BME280;32220;49.808;9.968;2024-01-30T09:40:54;100388.97;;;6.58;77.64
46506;BME280;32220;49.808;9.968;2024-01-30T09:43:23;100405.22;;;6.78;76.55
46506;BME280;32220;49.808;9.968;2024-01-30T09:45:51;100411.00;;;6.93;75.44
46506;BME280;32220;49.808;9.968;2024-01-30T09:48:20;100405.44;;;7.05;74.61
46506;BME280;32220;49.808;9.968;2024-01-30T09:50:50;100413.75;;;7.25;75.04
46506;BME280;32220;49.808;9.968;2024-01-30T09:53:18;100415.97;;;7.42;74.33
46506;BME280;32220;49.808;9.968;2024-01-30T09:55:49;100413.72;;;7.62;73.56
46506;BME280;32220;49.808;9.968;2024-01-30T09:58:18;100422.09;;;7.78;72.30
46506;BME280;32220;49.808;9.968;2024-01-30T10:00:45;100416.44;;;7.91;71.13
46506;BME280;32220;49.808;9.968;2024-01-30T10:03:13;100415.91;;;8.11;70.95
46506;BME280;32220;49.808;9.968;2024-01-30T10:05:41;100385.16;;;8.10;70.38
46506;BME280;32220;49.808;9.968;2024-01-30T10:08:16;100426.94;;;8.58;69.77
46506;BME280;32220;49.808;9.968;2024-01-30T10:10:46;100409.22;;;8.61;69.08
46506;BME280;32220;49.808;9.968;2024-01-30T10:13:15;100414.91;;;8.77;68.02
46506;BME280;32220;49.808;9.968;2024-01-30T10:15:43;100424.88;;;8.97;67.26
46506;BME280;32220;49.808;9.968;2024-01-30T10:18:11;100412.13;;;9.10;66.04
46506;BME280;32220;49.808;9.968;2024-01-30T10:20:39;100420.09;;;9.36;65.36
46506;BME280;32220;49.808;9.968;2024-01-30T10:23:06;100438.81;;;9.56;64.61
46506;BME280;32220;49.808;9.968;2024-01-30T10:25:34;100442.50;;;9.77;62.77
46506;BME280;32220;49.808;9.968;2024-01-30T10:28:02;100428.06;;;9.87;61.86
46506;BME280;32220;49.808;9.968;2024-01-30T10:30:31;100428.59;;;10.23;61.34
46506;BME280;32220;49.808;9.968;2024-01-30T10:32:59;100421.59;;;10.46;59.55
46506;BME280;32220;49.808;9.968;2024-01-30T10:35:27;100437.94;;;10.80;59.44
46506;BME280;32220;49.808;9.968;2024-01-30T10:37:57;100429.72;;;11.09;58.79
46506;BME280;32220;49.808;9.968;2024-01-30T10:40:27;100420.78;;;11.34;57.96
46506;BME280;32220;49.808;9.968;2024-01-30T10:42:56;100429.94;;;11.69;56.20
46506;BME280;32220;49.808;9.968;2024-01-30T10:45:26;100436.03;;;11.93;56.24
46506;BME280;32220;49.808;9.968;2024-01-30T10:47:55;100417.31;;;11.96;55.96
46506;BME280;32220;49.808;9.968;2024-01-30T10:50:25;100414.44;;;12.00;55.57
46506;BME280;32220;49.808;9.968;2024-01-30T10:52:53;100408.16;;;12.03;55.46
46506;BME280;32220;49.808;9.968;2024-01-30T10:55:22;100409.63;;;12.10;54.58
46506;BME280;32220;49.808;9.968;2024-01-30T10:57:50;100416.38;;;12.17;53.80
46506;BME280;32220;49.808;9.968;2024-01-30T11:00:19;100410.25;;;12.35;53.78
46506;BME280;32220;49.808;9.968;2024-01-30T11:02:49;100409.00;;;12.81;52.59
46506;BME280;32220;49.808;9.968;2024-01-30T11:05:25;100412.63;;;13.71;51.37
46506;BME280;32220;49.808;9.968;2024-01-30T11:07:53;100412.69;;;14.37;49.69
46506;BME280;32220;49.808;9.968;2024-01-30T11:10:21;100422.81;;;14.81;48.28
46506;BME280;32220;49.808;9.968;2024-01-30T11:12:51;100405.25;;;14.77;48.37
46506;BME280;32220;49.808;9.968;2024-01-30T11:15:19;100408.44;;;14.67;48.35
46506;BME280;32220;49.808;9.968;2024-01-30T11:17:51;100427.75;;;14.55;48.19
46506;BME280;32220;49.808;9.968;2024-01-30T11:20:25;100416.50;;;14.33;48.70
46506;BME280;32220;49.808;9.968;2024-01-30T11:22:56;100373.00;;;13.82;48.93
46506;BME280;32220;49.808;9.968;2024-01-30T11:25:25;100396.47;;;13.74;49.39
46506;BME280;32220;49.808;9.968;2024-01-30T11:27:54;100389.50;;;13.54;49.96
46506;BME280;32220;49.808;9.968;2024-01-30T11:30:23;100367.16;;;13.22;49.50
46506;BME280;32220;49.808;9.968;2024-01-30T11:33:00;100381.41;;;13.21;50.39
46506;BME280;32220;49.808;9.968;2024-01-30T11:35:32;100391.09;;;13.22;50.78
46506;BME280;32220;49.808;9.968;2024-01-30T11:38:02;100383.13;;;13.22;50.85
46506;BME280;32220;49.808;9.968;2024-01-30T11:40:34;100374.34;;;13.20;50.77
46506;BME280;32220;49.808;9.968;2024-01-30T11:43:06;100367.50;;;13.34;51.11
46506;BME280;32220;49.808;9.968;2024-01-30T11:45:35;100365.75;;;13.50;50.59
46506;BME280;32220;49.808;9.968;2024-01-30T11:48:04;100382.22;;;13.92;50.04
46506;BME280;32220;49.808;9.968;2024-01-30T11:50:33;100393.91;;;14.89;48.50
46506;BME280;32220;49.808;9.968;2024-01-30T11:53:04;100406.13;;;15.56;46.48
46506;BME280;32220;49.808;9.968;2024-01-30T11:55:32;100383.25;;;16.24;45.75
46506;BME280;32220;49.808;9.968;2024-01-30T11:58:02;100381.50;;;16.67;44.51
46506;BME280;32220;49.808;9.968;2024-01-30T12:00:30;100396.56;;;17.50;43.62
46506;BME280;32220;49.808;9.968;2024-01-30T12:02:59;100402.84;;;18.16;42.71
46506;BME280;32220;49.808;9.968;2024-01-30T12:05:28;100400.91;;;18.56;41.28
46506;BME280;32220;49.808;9.968;2024-01-30T12:07:56;100412.72;;;18.79;40.91
46506;BME280;32220;49.808;9.968;2024-01-30T12:10:26;100404.38;;;19.07;40.78
46506;BME280;32220;49.808;9.968;2024-01-30T12:12:54;100398.47;;;19.15;40.13
46506;BME280;32220;49.808;9.968;2024-01-30T12:15:24;100389.09;;;18.84;39.95
46506;BME280;32220;49.808;9.968;2024-01-30T12:17:52;100384.59;;;18.34;41.04
46506;BME280;32220;49.808;9.968;2024-01-30T12:20:20;100366.47;;;17.59;41.67
46506;BME280;32220;49.808;9.968;2024-01-30T12:22:48;100375.09;;;17.11;42.21
46506;BME280;32220;49.808;9.968;2024-01-30T12:25:17;100351.19;;;16.52;43.39
46506;BME280;32220;49.808;9.968;2024-01-30T12:27:49;100352.81;;;16.27;43.96
46506;BME280;32220;49.808;9.968;2024-01-30T12:30:18;100365.41;;;16.39;44.10
46506;BME280;32220;49.808;9.968;2024-01-30T12:32:48;100370.09;;;16.78;44.13
46506;BME280;32220;49.808;9.968;2024-01-30T12:35:19;100367.75;;;17.54;43.34
46506;BME280;32220;49.808;9.968;2024-01-30T12:37:48;100360.34;;;17.97;42.68
46506;BME280;32220;49.808;9.968;2024-01-30T12:40:16;100370.41;;;18.82;41.35
46506;BME280;32220;49.808;9.968;2024-01-30T12:42:47;100368.97;;;19.73;40.22
46506;BME280;32220;49.808;9.968;2024-01-30T12:45:16;100376.44;;;20.94;38.55
46506;BME280;32220;49.808;9.968;2024-01-30T12:47:46;100381.47;;;22.06;36.38
46506;BME280;32220;49.808;9.968;2024-01-30T12:50:13;100376.09;;;22.87;35.34
46506;BME280;32220;49.808;9.968;2024-01-30T12:52:42;100391.25;;;23.09;35.09
46506;BME280;32220;49.808;9.968;2024-01-30T12:55:10;100371.94;;;23.23;34.34
46506;BME280;32220;49.808;9.968;2024-01-30T12:57:37;100344.38;;;22.80;34.29
46506;BME280;32220;49.808;9.968;2024-01-30T13:00:08;100358.41;;;22.74;35.28
46506;BME280;32220;49.808;9.968;2024-01-30T13:02:36;100372.31;;;22.18;35.43
46506;BME280;32220;49.808;9.968;2024-01-30T13:05:04;100343.34;;;21.26;36.28
46506;BME280;32220;49.808;9.968;2024-01-30T13:07:31;100356.41;;;20.54;36.95
46506;BME280;32220;49.808;9.968;2024-01-30T13:09:59;100338.78;;;19.70;37.86
46506;BME280;32220;49.808;9.968;2024-01-30T13:12:30;100329.97;;;18.96;38.71
46506;BME280;32220;49.808;9.968;2024-01-30T13:15:00;100320.22;;;18.34;39.58
46506;BME280;32220;49.808;9.968;2024-01-30T13:17:32;100318.09;;;17.88;40.33
46506;BME280;32220;49.808;9.968;2024-01-30T13:20:00;100306.84;;;17.43;40.99
46506;BME280;32220;49.808;9.968;2024-01-30T13:22:28;100316.63;;;17.05;41.11
46506;BME280;32220;49.808;9.968;2024-01-30T13:24:56;100330.06;;;16.76;41.99
46506;BME280;32220;49.808;9.968;2024-01-30T13:27:24;100316.34;;;16.40;42.61
46506;BME280;32220;49.808;9.968;2024-01-30T13:29:52;100304.88;;;16.09;43.58
46506;BME280;32220;49.808;9.968;2024-01-30T13:32:19;100299.31;;;15.84;44.13
46506;BME280;32220;49.808;9.968;2024-01-30T13:34:48;100305.81;;;15.66;44.53
46506;BME280;32220;49.808;9.968;2024-01-30T13:37:16;100307.16;;;15.43;44.79
46506;BME280;32220;49.808;9.968;2024-01-30T13:39:44;100287.66;;;15.11;45.23
46506;BME280;32220;49.808;9.968;2024-01-30T13:42:11;100293.91;;;14.96;45.72
46506;BME280;32220;49.808;9.968;2024-01-30T13:44:39;100280.84;;;14.76;46.24
46506;BME280;32220;49.808;9.968;2024-01-30T13:47:06;100289.38;;;14.66;46.41
46506;BME280;32220;49.808;9.968;2024-01-30T13:49:34;100282.94;;;14.55;46.75
46506;BME280;32220;49.808;9.968;2024-01-30T13:52:04;100254.06;;;14.30;46.82
46506;BME280;32220;49.808;9.968;2024-01-30T13:54:31;100267.25;;;14.33;47.11
46506;BME280;32220;49.808;9.968;2024-01-30T13:57:00;100269.91;;;14.33;47.35
46506;BME280;32220;49.808;9.968;2024-01-30T13:59:27;100270.78;;;14.33;48.02
46506;BME280;32220;49.808;9.968;2024-01-30T14:01:55;100287.34;;;14.38;48.03
46506;BME280;32220;49.808;9.968;2024-01-30T14:04:22;100246.94;;;14.15;47.97
46506;BME280;32220;49.808;9.968;2024-01-30T14:06:50;100275.47;;;14.28;47.89
46506;BME280;32220;49.808;9.968;2024-01-30T14:09:19;100287.34;;;14.38;48.41
46506;BME280;32220;49.808;9.968;2024-01-30T14:11:47;100273.75;;;14.27;48.75
46506;BME280;32220;49.808;9.968;2024-01-30T14:14:14;100289.13;;;14.55;48.51
46506;BME280;32220;49.808;9.968;2024-01-30T14:16:42;100267.78;;;14.55;48.58
46506;BME280;32220;49.808;9.968;2024-01-30T14:19:10;100278.09;;;14.61;48.41
46506;BME280;32220;49.808;9.968;2024-01-30T14:21:37;100285.25;;;14.45;48.51
46506;BME280;32220;49.808;9.968;2024-01-30T14:24:05;100293.78;;;14.34;48.57
46506;BME280;32220;49.808;9.968;2024-01-30T14:26:34;100258.47;;;13.98;48.77
46506;BME280;32220;49.808;9.968;2024-01-30T14:29:02;100297.28;;;14.03;49.07
46506;BME280;32220;49.808;9.968;2024-01-30T14:31:30;100293.25;;;13.79;49.27
46506;BME280;32220;49.808;9.968;2024-01-30T14:33:58;100295.47;;;13.71;49.78
46506;BME280;32220;49.808;9.968;2024-01-30T14:36:26;100294.38;;;13.58;49.81
46506;BME280;32220;49.808;9.968;2024-01-30T14:38:54;100281.41;;;13.35;50.01
46506;BME280;32220;49.808;9.968;2024-01-30T14:41:22;100279.44;;;13.21;50.08
46506;BME280;32220;49.808;9.968;2024-01-30T14:43:51;100262.41;;;13.06;50.68
46506;BME280;32220;49.808;9.968;2024-01-30T14:46:19;100255.03;;;12.94;50.59
46506;BME280;32220;49.808;9.968;2024-01-30T14:48:47;100280.84;;;12.92;50.85
46506;BME280;32220;49.808;9.968;2024-01-30T14:51:17;100267.63;;;12.73;51.35
46506;BME280;32220;49.808;9.968;2024-01-30T14:53:46;100264.75;;;12.59;51.69
46506;BME280;32220;49.808;9.968;2024-01-30T14:56:14;100246.59;;;12.31;51.96
46506;BME280;32220;49.808;9.968;2024-01-30T14:58:42;100280.78;;;12.39;52.58
46506;BME280;32220;49.808;9.968;2024-01-30T15:01:12;100298.94;;;12.29;52.69
46506;BME280;32220;49.808;9.968;2024-01-30T15:03:39;100273.53;;;12.05;52.96
46506;BME280;32220;49.808;9.968;2024-01-30T15:06:08;100271.72;;;11.86;53.61
46506;BME280;32220;49.808;9.968;2024-01-30T15:08:36;100272.09;;;11.77;53.49
46506;BME280;32220;49.808;9.968;2024-01-30T15:11:04;100274.28;;;11.68;53.58
46506;BME280;32220;49.808;9.968;2024-01-30T15:13:31;100240.69;;;11.48;53.83
46506;BME280;32220;49.808;9.968;2024-01-30T15:15:59;100287.91;;;11.60;54.13
46506;BME280;32220;49.808;9.968;2024-01-30T15:18:31;100274.38;;;11.46;54.21
46506;BME280;32220;49.808;9.968;2024-01-30T15:20:58;100249.78;;;11.22;54.08
46506;BME280;32220;49.808;9.968;2024-01-30T15:23:26;100230.19;;;11.04;54.53
46506;BME280;32220;49.808;9.968;2024-01-30T15:25:54;100271.28;;;11.14;54.55
46506;BME280;32220;49.808;9.968;2024-01-30T15:28:33;100263.72;;;11.05;54.44
46506;BME280;32220;49.808;9.968;2024-01-30T15:31:01;100259.81;;;10.94;54.87
46506;BME280;32220;49.808;9.968;2024-01-30T15:33:31;100280.16;;;10.93;55.31
46506;BME280;32220;49.808;9.968;2024-01-30T15:36:00;100265.06;;;10.73;55.31
46506;BME280;32220;49.808;9.968;2024-01-30T15:38:27;100257.56;;;10.63;55.54
46506;BME280;32220;49.808;9.968;2024-01-30T15:40:56;100281.31;;;10.64;55.80
46506;BME280;32220;49.808;9.968;2024-01-30T15:43:24;100269.81;;;10.43;55.69
46506;BME280;32220;49.808;9.968;2024-01-30T15:45:54;100271.78;;;10.38;56.11
46506;BME280;32220;49.808;9.968;2024-01-30T15:48:23;100284.22;;;10.36;56.74
46506;BME280;32220;49.808;9.968;2024-01-30T15:50:54;100269.91;;;10.17;56.56
46506;BME280;32220;49.808;9.968;2024-01-30T15:53:22;100290.09;;;10.21;56.81
46506;BME280;32220;49.808;9.968;2024-01-30T15:55:52;100275.63;;;10.06;56.61
46506;BME280;32220;49.808;9.968;2024-01-30T15:58:21;100276.84;;;9.98;57.39
46506;BME280;32220;49.808;9.968;2024-01-30T16:00:49;100278.88;;;9.90;57.13
46506;BME280;32220;49.808;9.968;2024-01-30T16:03:16;100285.91;;;9.91;57.21
46506;BME280;32220;49.808;9.968;2024-01-30T16:05:44;100282.97;;;9.75;58.01
46506;BME280;32220;49.808;9.968;2024-01-30T16:08:13;100241.84;;;9.42;58.32
46506;BME280;32220;49.808;9.968;2024-01-30T16:10:43;100281.84;;;9.57;58.68
46506;BME280;32220;49.808;9.968;2024-01-30T16:13:11;100219.78;;;9.18;58.52
46506;BME280;32220;49.808;9.968;2024-01-30T16:15:38;100284.09;;;9.43;58.47
46506;BME280;32220;49.808;9.968;2024-01-30T16:18:09;100292.00;;;9.45;58.44
46506;BME280;32220;49.808;9.968;2024-01-30T16:20:42;100291.13;;;9.44;58.54
46506;BME280;32220;49.808;9.968;2024-01-30T16:23:14;100262.84;;;9.21;58.43
46506;BME280;32220;49.808;9.968;2024-01-30T16:25:44;100272.56;;;9.21;58.64
46506;BME280;32220;49.808;9.968;2024-01-30T16:28:12;100286.69;;;9.20;58.70
46506;BME280;32220;49.808;9.968;2024-01-30T16:30:40;100293.59;;;9.24;59.11
46506;BME280;32220;49.808;9.968;2024-01-30T16:33:08;100286.78;;;9.17;59.17
46506;BME280;32220;49.808;9.968;2024-01-30T16:35:37;100273.16;;;9.02;59.00
46506;BME280;32220;49.808;9.968;2024-01-30T16:38:06;100267.09;;;9.00;59.19
46506;BME280;32220;49.808;9.968;2024-01-30T16:40:36;100268.28;;;8.90;59.74
46506;BME280;32220;49.808;9.968;2024-01-30T16:43:04;100301.53;;;8.97;59.73
46506;BME280;32220;49.808;9.968;2024-01-30T16:45:32;100305.19;;;8.93;59.79
46506;BME280;32220;49.808;9.968;2024-01-30T16:48:00;100282.94;;;8.74;59.88
46506;BME280;32220;49.808;9.968;2024-01-30T16:50:29;100298.69;;;8.77;59.66
46506;BME280;32220;49.808;9.968;2024-01-30T16:52:57;100257.09;;;8.56;60.19
46506;BME280;32220;49.808;9.968;2024-01-30T16:55:25;100300.41;;;8.78;60.19
46506;BME280;32220;49.808;9.968;2024-01-30T16:57:55;100247.78;;;8.44;60.37
46506;BME280;32220;49.808;9.968;2024-01-30T17:00:23;100250.47;;;8.43;60.25
46506;BME280;32220;49.808;9.968;2024-01-30T17:02:50;100260.88;;;8.49;60.46
46506;BME280;32220;49.808;9.968;2024-01-30T17:05:18;100259.13;;;8.48;61.69
46506;BME280;32220;49.808;9.968;2024-01-30T17:07:46;100289.53;;;8.61;62.01
46506;BME280;32220;49.808;9.968;2024-01-30T17:10:14;100276.63;;;8.52;61.41
46506;BME280;32220;49.808;9.968;2024-01-30T17:12:44;100278.44;;;8.50;61.89
46506;BME280;32220;49.808;9.968;2024-01-30T17:15:14;100295.72;;;8.60;61.56
46506;BME280;32220;49.808;9.968;2024-01-30T17:17:42;100281.06;;;8.50;61.72
46506;BME280;32220;49.808;9.968;2024-01-30T17:20:10;100280.34;;;8.45;61.66
46506;BME280;32220;49.808;9.968;2024-01-30T17:22:39;100282.16;;;8.43;61.50
46506;BME280;32220;49.808;9.968;2024-01-30T17:25:07;100291.81;;;8.44;61.64
46506;BME280;32220;49.808;9.968;2024-01-30T17:27:34;100298.00;;;8.43;61.36
46506;BME280;32220;49.808;9.968;2024-01-30T17:30:03;100256.69;;;8.12;61.94
46506;BME280;32220;49.808;9.968;2024-01-30T17:32:32;100315.50;;;8.47;62.20
46506;BME280;32220;49.808;9.968;2024-01-30T17:35:00;100297.44;;;8.33;62.15
46506;BME280;32220;49.808;9.968;2024-01-30T17:37:29;100324.41;;;8.43;61.88
46506;BME280;32220;49.808;9.968;2024-01-30T17:39:57;100309.75;;;8.33;62.16
46506;BME280;32220;49.808;9.968;2024-01-30T17:42:24;100322.66;;;8.42;62.22
46506;BME280;32220;49.808;9.968;2024-01-30T17:44:52;100324.50;;;8.40;62.23
46506;BME280;32220;49.808;9.968;2024-01-30T17:47:20;100302.00;;;8.26;62.39
46506;BME280;32220;49.808;9.968;2024-01-30T17:49:49;100327.25;;;8.37;62.49
46506;BME280;32220;49.808;9.968;2024-01-30T17:52:16;100315.19;;;8.26;62.72
46506;BME280;32220;49.808;9.968;2024-01-30T17:54:44;100313.44;;;8.27;62.72
46506;BME280;32220;49.808;9.968;2024-01-30T17:57:12;100326.34;;;8.38;62.85
46506;BME280;32220;49.808;9.968;2024-01-30T17:59:39;100313.44;;;8.27;62.65
46506;BME280;32220;49.808;9.968;2024-01-30T18:02:08;100322.09;;;8.32;62.77
46506;BME280;32220;49.808;9.968;2024-01-30T18:04:38;100312.56;;;8.26;62.74
46506;BME280;32220;49.808;9.968;2024-01-30T18:07:08;100324.69;;;8.34;63.03
46506;BME280;32220;49.808;9.968;2024-01-30T18:09:36;100310.03;;;8.22;63.08
46506;BME280;32220;49.808;9.968;2024-01-30T18:12:05;100324.84;;;8.27;64.30
46506;BME280;32220;49.808;9.968;2024-01-30T18:14:35;100316.34;;;8.16;64.11
46506;BME280;32220;49.808;9.968;2024-01-30T18:17:03;100324.22;;;8.18;64.24
46506;BME280;32220;49.808;9.968;2024-01-30T18:19:30;100314.81;;;8.09;64.03
46506;BME280;32220;49.808;9.968;2024-01-30T18:21:58;100323.56;;;8.11;64.09
46506;BME280;32220;49.808;9.968;2024-01-30T18:24:28;100302.81;;;7.99;64.34
46506;BME280;32220;49.808;9.968;2024-01-30T18:26:55;100332.19;;;8.16;64.02
46506;BME280;32220;49.808;9.968;2024-01-30T18:29:23;100330.56;;;8.12;64.19
46506;BME280;32220;49.808;9.968;2024-01-30T18:31:51;100344.41;;;8.20;64.25
46506;BME280;32220;49.808;9.968;2024-01-30T18:34:19;100323.63;;;8.08;64.40
46506;BME280;32220;49.808;9.968;2024-01-30T18:36:46;100346.13;;;8.21;64.73
46506;BME280;32220;49.808;9.968;2024-01-30T18:39:14;100295.28;;;7.85;64.70
46506;BME280;32220;49.808;9.968;2024-01-30T18:41:43;100315.19;;;7.97;64.80
46506;BME280;32220;49.808;9.968;2024-01-30T18:44:11;100321.34;;;7.96;65.05
46506;BME280;32220;49.808;9.968;2024-01-30T18:46:39;100324.69;;;8.03;65.01
46506;BME280;32220;49.808;9.968;2024-01-30T18:49:06;100344.75;;;8.08;64.94
46506;BME280;32220;49.808;9.968;2024-01-30T18:51:34;100327.47;;;7.98;64.92
46506;BME280;32220;49.808;9.968;2024-01-30T18:54:02;100365.59;;;8.17;65.10
46506;BME280;32220;49.808;9.968;2024-01-30T18:56:30;100356.97;;;8.12;65.28
46506;BME280;32220;49.808;9.968;2024-01-30T18:58:59;100287.75;;;7.72;65.53
46506;BME280;32220;49.808;9.968;2024-01-30T19:01:26;100331.00;;;7.97;65.76
46506;BME280;32220;49.808;9.968;2024-01-30T19:03:54;100300.69;;;7.81;67.07
46506;BME280;32220;49.808;9.968;2024-01-30T19:06:22;100339.56;;;8.05;66.64
46506;BME280;32220;49.808;9.968;2024-01-30T19:08:50;100285.16;;;7.70;66.64
46506;BME280;32220;49.808;9.968;2024-01-30T19:11:18;100332.50;;;8.06;66.48
46506;BME280;32220;49.808;9.968;2024-01-30T19:13:46;100317.03;;;7.93;66.71
46506;BME280;32220;49.808;9.968;2024-01-30T19:16:15;100322.34;;;7.92;66.50
46506;BME280;32220;49.808;9.968;2024-01-30T19:18:43;100330.22;;;7.93;66.76
46506;BME280;32220;49.808;9.968;2024-01-30T19:21:11;100345.06;;;7.98;66.88
46506;BME280;32220;49.808;9.968;2024-01-30T19:23:39;100336.53;;;7.88;67.01
46506;BME280;32220;49.808;9.968;2024-01-30T19:26:07;100348.72;;;7.92;67.17
46506;BME280;32220;49.808;9.968;2024-01-30T19:28:34;100357.59;;;7.89;67.46
46506;BME280;32220;49.808;9.968;2024-01-30T19:31:02;100353.25;;;7.88;67.47
46506;BME280;32220;49.808;9.968;2024-01-30T19:33:32;100364.50;;;7.93;67.53
46506;BME280;32220;49.808;9.968;2024-01-30T19:36:00;100362.94;;;7.88;67.72
46506;BME280;32220;49.808;9.968;2024-01-30T19:38:27;100371.56;;;7.93;68.02
46506;BME280;32220;49.808;9.968;2024-01-30T19:40:55;100351.69;;;7.80;68.24
46506;BME280;32220;49.808;9.968;2024-01-30T19:43:23;100377.03;;;7.87;68.20
46506;BME280;32220;49.808;9.968;2024-01-30T19:45:51;100343.19;;;7.70;68.73
46506;BME280;32220;49.808;9.968;2024-01-30T19:48:20;100387.50;;;7.90;68.91
46506;BME280;32220;49.808;9.968;2024-01-30T19:50:49;100369.38;;;7.78;69.15
46506;BME280;32220;49.808;9.968;2024-01-30T19:53:17;100366.88;;;7.72;69.18
46506;BME280;32220;49.808;9.968;2024-01-30T19:55:46;100389.34;;;7.86;68.94
46506;BME280;32220;49.808;9.968;2024-01-30T19:58:14;100374.72;;;7.75;69.12
46506;BME280;32220;49.808;9.968;2024-01-30T20:00:42;100355.81;;;7.57;69.38
46506;BME280;32220;49.808;9.968;2024-01-30T20:03:10;100381.81;;;7.71;69.24
46506;BME280;32220;49.808;9.968;2024-01-30T20:05:38;100397.53;;;7.76;69.90
46506;BME280;32220;49.808;9.968;2024-01-30T20:08:07;100405.44;;;7.76;69.67
46506;BME280;32220;49.808;9.968;2024-01-30T20:10:35;100391.69;;;7.65;69.94
46506;BME280;32220;49.808;9.968;2024-01-30T20:13:03;100400.41;;;7.67;70.20
46506;BME280;32220;49.808;9.968;2024-01-30T20:15:30;100379.63;;;7.54;70.06
46506;BME280;32220;49.808;9.968;2024-01-30T20:17:58;100392.72;;;7.57;70.04
46506;BME280;32220;49.808;9.968;2024-01-30T20:20:25;100411.88;;;7.66;70.60
46506;BME280;32220;49.808;9.968;2024-01-30T20:22:53;100399.91;;;7.52;70.49
46506;BME280;32220;49.808;9.968;2024-01-30T20:25:22;100408.69;;;7.53;70.83
46506;BME280;32220;49.808;9.968;2024-01-30T20:27:50;100409.56;;;7.53;70.61
46506;BME280;32220;49.808;9.968;2024-01-30T20:30:18;100374.97;;;7.30;70.78
46506;BME280;32220;49.808;9.968;2024-01-30T20:32:48;100391.34;;;7.43;70.54
46506;BME280;32220;49.808;9.968;2024-01-30T20:35:17;100394.81;;;7.45;70.75
46506;BME280;32220;49.808;9.968;2024-01-30T20:37:48;100407.88;;;7.49;70.90
46506;BME280;32220;49.808;9.968;2024-01-30T20:40:16;100400.13;;;7.43;71.31
46506;BME280;32220;49.808;9.968;2024-01-30T20:42:47;100414.97;;;7.47;71.65
46506;BME280;32220;49.808;9.968;2024-01-30T20:45:15;100383.06;;;7.22;71.68
46506;BME280;32220;49.808;9.968;2024-01-30T20:47:43;100417.81;;;7.40;71.44
46506;BME280;32220;49.808;9.968;2024-01-30T20:50:10;100406.69;;;7.27;71.60
46506;BME280;32220;49.808;9.968;2024-01-30T20:52:38;100418.97;;;7.28;71.82
46506;BME280;32220;49.808;9.968;2024-01-30T20:55:06;100432.81;;;7.36;71.47
46506;BME280;32220;49.808;9.968;2024-01-30T20:57:33;100409.47;;;7.21;72.01
46506;BME280;32220;49.808;9.968;2024-01-30T21:00:06;100428.50;;;7.32;72.52
46506;BME280;32220;49.808;9.968;2024-01-30T21:02:34;100412.09;;;7.21;72.38
46506;BME280;32220;49.808;9.968;2024-01-30T21:05:03;100416.41;;;7.25;73.39
46506;BME280;32220;49.808;9.968;2024-01-30T21:07:31;100414.78;;;7.18;73.35
46506;BME280;32220;49.808;9.968;2024-01-30T21:09:59;100415.84;;;7.11;73.41
46506;BME280;32220;49.808;9.968;2024-01-30T21:12:26;100421.25;;;7.05;73.08
46506;BME280;32220;49.808;9.968;2024-01-30T21:14:54;100414.47;;;6.95;73.25
46506;BME280;32220;49.808;9.968;2024-01-30T21:17:23;100416.47;;;6.83;73.27
46506;BME280;32220;49.808;9.968;2024-01-30T21:19:50;100390.69;;;6.59;73.49
46506;BME280;32220;49.808;9.968;2024-01-30T21:22:18;100399.63;;;6.52;73.81
46506;BME280;32220;49.808;9.968;2024-01-30T21:24:45;100395.53;;;6.39;73.47
46506;BME280;32220;49.808;9.968;2024-01-30T21:27:13;100406.06;;;6.39;73.76
46506;BME280;32220;49.808;9.968;2024-01-30T21:29:42;100405.41;;;6.28;74.07
46506;BME280;32220;49.808;9.968;2024-01-30T21:32:09;100412.44;;;6.27;75.04
46506;BME280;32220;49.808;9.968;2024-01-30T21:34:38;100400.56;;;6.06;74.62
46506;BME280;32220;49.808;9.968;2024-01-30T21:37:06;100418.91;;;6.09;74.87
46506;BME280;32220;49.808;9.968;2024-01-30T21:39:33;100406.06;;;5.94;74.76
